Mariana — 2ETR4 — position and weather

sailwx.info

Track history (hours):
 
Tides and Currents Weather Stations Pressure Air Temp Water Temp Dewpoint Dewpoint Depression Visibility Wind Speed Wind Dir Waves Ship Positions

Mariana

Last reported at 2017-Oct-23 09:41 UTC. Time now 2017-Nov-24 12:52 UTC.
Position N 01°14' E 103°58'.
Warning: this ship's position is 32 days out of date.

Length 195 m; draft 10.5 m.

Type: Cargo ship. MMSI: 235088073.

Date/timePositionNaut miles runAvg speedWind from/ knotsBaromVisibWave heightAir tempDewpointWater temp
2017-Oct-23 09:41N 01°14' E 103°58'2 8.3
2017-Oct-23 09:30N 01°16' E 103°57'2 3.6
2017-Oct-23 09:00N 01°17' E 103°56'0 0.2
2017-Oct-23 08:30N 01°17' E 103°56'0 0.0
2017-Oct-23 08:00N 01°17' E 103°56'0 0.0
2017-Oct-23 07:30N 01°17' E 103°56'0 0.0
2017-Oct-23 07:00N 01°17' E 103°56'0 0.0
2017-Oct-23 06:18N 01°17' E 103°56'0 0.0
2017-Oct-23 05:54N 01°17' E 103°56'0 0.0
2017-Oct-23 05:27N 01°17' E 103°56'0 0.0
2017-Oct-23 04:36N 01°17' E 103°56'0 0.1
2017-Oct-23 04:24N 01°17' E 103°56'0 0.1
2017-Oct-23 03:54N 01°17' E 103°56'0 0.2
2017-Oct-23 03:30N 01°17' E 103°56'0 0.2
2017-Oct-23 03:00N 01°17' E 103°56'0 0.1
2017-Oct-23 02:30N 01°17' E 103°56'0 0.0
2017-Oct-23 01:57N 01°17' E 103°56'0 0.0
2017-Oct-23 01:24N 01°17' E 103°56'0 0.0
2017-Oct-23 00:36N 01°17' E 103°56'0 0.1
2017-Oct-23 00:30N 01°17' E 103°56'0 0.1
2017-Oct-22 23:48N 01°17' E 103°56'0 0.2
2017-Oct-22 23:18N 01°17' E 103°56'0 0.0
2017-Oct-22 22:48N 01°17' E 103°56'0 0.2
2017-Oct-22 22:30N 01°17' E 103°56'0 0.0
2017-Oct-22 22:00N 01°17' E 103°56'0 0.1
2017-Oct-22 21:24N 01°17' E 103°56'0 0.0
2017-Oct-22 20:54N 01°17' E 103°56'0 0.0
2017-Oct-22 20:30N 01°17' E 103°56'0 0.1
2017-Oct-22 19:12N 01°17' E 103°56'0 0.0
2017-Oct-22 17:07N 01°17' E 103°56'0 0.4
2017-Oct-22 16:55N 01°17' E 103°56'1 3.3
2017-Oct-22 16:30N 01°16' E 103°57'1 1.3
2017-Oct-22 16:00N 01°15' E 103°57'2 3.8
2017-Oct-22 15:30N 01°14' E 103°56'3 6.4
2017-Oct-22 15:00N 01°12' E 103°53'2 4.7
2017-Oct-22 14:28N 01°11' E 103°51'4 8.3
2017-Oct-22 14:00N 01°09' E 103°48'3 6.2
2017-Oct-22 13:29N 01°07' E 103°45'  
Track history (hours):
 
Tides and Currents Weather Stations Pressure Air Temp Water Temp Dewpoint Dewpoint Depression Visibility Wind Speed Wind Dir Waves Ship Positions

Mariana

Last reported at 2017-Oct-23 09:41 UTC. Time now 2017-Nov-24 12:52 UTC.
Position N 01°14' E 103°58'.
Warning: this ship's position is 32 days out of date.

Length 195 m; draft 10.5 m.

Type: Cargo ship. MMSI: 235088073.

Date/timePositionNaut miles runAvg speedWind from/ knotsBaromVisibWave heightAir tempDewpointWater temp
2017-Oct-23 09:41N 01°14' E 103°58'2 8.3
2017-Oct-23 09:30N 01°16' E 103°57'2 3.6
2017-Oct-23 09:00N 01°17' E 103°56'0 0.2
2017-Oct-23 08:30N 01°17' E 103°56'0 0.0
2017-Oct-23 08:00N 01°17' E 103°56'0 0.0
2017-Oct-23 07:30N 01°17' E 103°56'0 0.0
2017-Oct-23 07:00N 01°17' E 103°56'0 0.0
2017-Oct-23 06:18N 01°17' E 103°56'0 0.0
2017-Oct-23 05:54N 01°17' E 103°56'0 0.0
2017-Oct-23 05:27N 01°17' E 103°56'0 0.0
2017-Oct-23 04:36N 01°17' E 103°56'0 0.1
2017-Oct-23 04:24N 01°17' E 103°56'0 0.1
2017-Oct-23 03:54N 01°17' E 103°56'0 0.2
2017-Oct-23 03:30N 01°17' E 103°56'0 0.2
2017-Oct-23 03:00N 01°17' E 103°56'0 0.1
2017-Oct-23 02:30N 01°17' E 103°56'0 0.0
2017-Oct-23 01:57N 01°17' E 103°56'0 0.0
2017-Oct-23 01:24N 01°17' E 103°56'0 0.0
2017-Oct-23 00:36N 01°17' E 103°56'0 0.1
2017-Oct-23 00:30N 01°17' E 103°56'0 0.1
2017-Oct-22 23:48N 01°17' E 103°56'0 0.2
2017-Oct-22 23:18N 01°17' E 103°56'0 0.0
2017-Oct-22 22:48N 01°17' E 103°56'0 0.2
2017-Oct-22 22:30N 01°17' E 103°56'0 0.0
2017-Oct-22 22:00N 01°17' E 103°56'0 0.1
2017-Oct-22 21:24N 01°17' E 103°56'0 0.0
2017-Oct-22 20:54N 01°17' E 103°56'0 0.0
2017-Oct-22 20:30N 01°17' E 103°56'0 0.1
2017-Oct-22 19:12N 01°17' E 103°56'0 0.0
2017-Oct-22 17:07N 01°17' E 103°56'0 0.4
2017-Oct-22 16:55N 01°17' E 103°56'1 3.3
2017-Oct-22 16:30N 01°16' E 103°57'1 1.3
2017-Oct-22 16:00N 01°15' E 103°57'2 3.8
2017-Oct-22 15:30N 01°14' E 103°56'3 6.4
2017-Oct-22 15:00N 01°12' E 103°53'2 4.7
2017-Oct-22 14:28N 01°11' E 103°51'4 8.3
2017-Oct-22 14:00N 01°09' E 103°48'3 6.2
2017-Oct-22 13:29N 01°07' E 103°45'  

Dump ship's entire track history